createdAt,value
2023-03-29T00:00:30.931Z,1012.60
2023-03-29T00:01:36.143Z,1012.60
2023-03-29T00:02:31.066Z,1012.57
2023-03-29T00:03:31.229Z,1012.56
2023-03-29T00:04:31.089Z,1012.56
2023-03-29T00:05:31.046Z,1012.50
2023-03-29T00:06:31.080Z,1012.48
2023-03-29T00:07:31.094Z,1012.43
2023-03-29T00:08:31.121Z,1012.41
2023-03-29T00:09:31.140Z,1012.42
2023-03-29T00:10:31.167Z,1012.42
2023-03-29T00:11:31.188Z,1012.37
2023-03-29T00:12:31.245Z,1012.41
2023-03-29T00:13:31.252Z,1012.36
2023-03-29T00:14:31.317Z,1012.35
2023-03-29T00:15:31.376Z,1012.32
2023-03-29T00:16:31.338Z,1012.34
2023-03-29T00:17:31.328Z,1012.34
2023-03-29T00:18:31.353Z,1012.38
2023-03-29T00:19:31.376Z,1012.32
2023-03-29T00:20:31.401Z,1012.32
2023-03-29T00:21:31.430Z,1012.33
2023-03-29T00:22:31.447Z,1012.37
2023-03-29T00:23:31.471Z,1012.30
2023-03-29T00:24:31.492Z,1012.26
2023-03-29T00:25:31.515Z,1012.31
2023-03-29T00:26:31.540Z,1012.34
2023-03-29T00:27:31.559Z,1012.26
2023-03-29T00:28:31.622Z,1012.25
2023-03-29T00:29:31.617Z,1012.21
2023-03-29T00:30:31.633Z,1012.25
2023-03-29T00:31:31.877Z,1012.25
2023-03-29T00:32:31.702Z,1012.23
2023-03-29T00:33:31.706Z,1012.16
2023-03-29T00:34:31.726Z,1012.21
2023-03-29T00:35:31.792Z,1012.20
2023-03-29T00:36:31.774Z,1012.19
2023-03-29T00:37:31.809Z,1012.23
2023-03-29T00:38:31.820Z,1012.24
2023-03-29T00:39:31.844Z,1012.24
2023-03-29T00:40:31.868Z,1012.24
2023-03-29T00:41:31.889Z,1012.21
2023-03-29T00:42:31.912Z,1012.20
2023-03-29T00:43:31.935Z,1012.14
2023-03-29T00:44:32.024Z,1012.11
2023-03-29T00:45:31.990Z,1012.10
2023-03-29T00:46:32.131Z,1012.12
2023-03-29T00:47:32.063Z,1012.10
2023-03-29T00:48:32.056Z,1012.11
2023-03-29T00:49:32.084Z,1012.07
2023-03-29T00:50:32.119Z,1012.04
2023-03-29T00:51:32.122Z,1012.03
2023-03-29T00:52:32.172Z,1012.04
2023-03-29T00:53:32.432Z,1012.04
2023-03-29T00:54:32.193Z,1012.04
2023-03-29T00:55:32.219Z,1012.02
2023-03-29T00:56:32.243Z,1012.00
2023-03-29T00:57:32.263Z,1011.94
2023-03-29T00:58:32.289Z,1011.98
2023-03-29T00:59:32.310Z,1011.92
2023-03-29T01:00:32.368Z,1011.88
2023-03-29T01:01:32.385Z,1011.89
2023-03-29T01:02:32.433Z,1011.87
2023-03-29T01:03:32.454Z,1011.85
2023-03-29T01:04:32.428Z,1011.80
2023-03-29T01:05:32.458Z,1011.80
2023-03-29T01:06:32.485Z,1011.77
2023-03-29T01:07:32.500Z,1011.84
2023-03-29T01:08:32.527Z,1011.84
2023-03-29T01:09:32.552Z,1011.79
2023-03-29T01:10:32.574Z,1011.81
2023-03-29T01:11:32.601Z,1011.82
2023-03-29T01:12:32.653Z,1011.77
2023-03-29T01:13:32.644Z,1011.77
2023-03-29T01:14:32.667Z,1011.79
2023-03-29T01:15:32.690Z,1011.76
2023-03-29T01:16:32.836Z,1011.76
2023-03-29T01:17:32.758Z,1011.78
2023-03-29T01:18:32.761Z,1011.79
2023-03-29T01:19:32.790Z,1011.76
2023-03-29T01:20:32.811Z,1011.69
2023-03-29T01:21:32.845Z,1011.72
2023-03-29T01:22:32.856Z,1011.72
2023-03-29T01:23:32.882Z,1011.70
2023-03-29T01:24:32.914Z,1011.65
2023-03-29T01:25:32.928Z,1011.68
2023-03-29T01:26:32.952Z,1011.65
2023-03-29T01:27:32.977Z,1011.64
2023-03-29T01:28:33.000Z,1011.68
2023-03-29T01:29:33.040Z,1011.63
2023-03-29T01:30:33.044Z,1011.61
2023-03-29T01:31:33.145Z,1011.60
2023-03-29T01:32:33.152Z,1011.63
2023-03-29T01:33:33.120Z,1011.63
2023-03-29T01:34:33.140Z,1011.59
2023-03-29T01:35:33.195Z,1011.57
2023-03-29T01:36:33.189Z,1011.59
2023-03-29T01:37:33.209Z,1011.57
2023-03-29T01:38:33.234Z,1011.58
2023-03-29T01:39:33.255Z,1011.53
2023-03-29T01:40:33.314Z,1011.56
2023-03-29T01:41:33.304Z,1011.54
2023-03-29T01:42:33.329Z,1011.49
2023-03-29T01:43:33.357Z,1011.48
2023-03-29T01:44:33.378Z,1011.53
2023-03-29T01:45:33.396Z,1011.50
2023-03-29T01:46:33.489Z,1011.45
2023-03-29T01:47:33.541Z,1011.45
2023-03-29T01:48:33.503Z,1011.45
2023-03-29T01:49:33.492Z,1011.43
2023-03-29T01:50:33.518Z,1011.46
2023-03-29T01:51:33.742Z,1011.46
2023-03-29T01:52:33.571Z,1011.46
2023-03-29T01:53:33.591Z,1011.44
2023-03-29T01:54:33.615Z,1011.42
2023-03-29T01:55:33.650Z,1011.47
2023-03-29T01:56:33.663Z,1011.47
2023-03-29T01:57:33.684Z,1011.49
2023-03-29T01:58:33.721Z,1011.47
2023-03-29T01:59:33.734Z,1011.46
2023-03-29T02:00:33.777Z,1011.46
2023-03-29T02:01:33.819Z,1011.43
2023-03-29T02:02:33.985Z,1011.40
2023-03-29T02:03:33.961Z,1011.44
2023-03-29T02:04:33.874Z,1011.36
2023-03-29T02:05:33.891Z,1011.39
2023-03-29T02:06:33.909Z,1011.36
2023-03-29T02:07:33.921Z,1011.39
2023-03-29T02:08:33.958Z,1011.42
2023-03-29T02:09:33.970Z,1011.35
2023-03-29T02:10:34.018Z,1011.37
2023-03-29T02:11:34.127Z,1011.39
2023-03-29T02:12:34.050Z,1011.32
2023-03-29T02:13:34.064Z,1011.32
2023-03-29T02:14:34.116Z,1011.27
2023-03-29T02:15:34.185Z,1011.19
2023-03-29T02:16:34.168Z,1011.17
2023-03-29T02:17:34.182Z,1011.16
2023-03-29T02:18:34.243Z,1011.14
2023-03-29T02:19:34.256Z,1011.14
2023-03-29T02:20:34.250Z,1011.15
2023-03-29T02:21:34.257Z,1011.14
2023-03-29T02:22:34.278Z,1011.10
2023-03-29T02:23:34.392Z,1011.12
2023-03-29T02:24:34.339Z,1011.12
2023-03-29T02:25:34.356Z,1011.07
2023-03-29T02:26:34.374Z,1011.06
2023-03-29T02:27:34.400Z,1011.06
2023-03-29T02:28:34.424Z,1011.08
2023-03-29T02:29:34.457Z,1011.07
2023-03-29T02:30:34.468Z,1011.08
2023-03-29T02:31:34.522Z,1011.06
2023-03-29T02:32:34.540Z,1011.04
2023-03-29T02:33:34.542Z,1011.02
2023-03-29T02:34:34.582Z,1011.04
2023-03-29T02:35:34.808Z,1011.02
2023-03-29T02:36:34.636Z,1010.97
2023-03-29T02:37:34.634Z,1010.98
2023-03-29T02:38:34.661Z,1010.97
2023-03-29T02:39:34.695Z,1010.97
2023-03-29T02:40:34.713Z,1010.99
2023-03-29T02:41:34.734Z,1010.96
2023-03-29T02:42:34.769Z,1010.97
2023-03-29T02:43:34.781Z,1010.94
2023-03-29T02:44:34.816Z,1010.94
2023-03-29T02:45:34.829Z,1010.93
2023-03-29T02:46:34.880Z,1010.96
2023-03-29T02:47:34.924Z,1010.95
2023-03-29T02:48:34.904Z,1010.89
2023-03-29T02:49:34.964Z,1010.87
2023-03-29T02:50:34.945Z,1010.82
2023-03-29T02:51:34.982Z,1010.83
2023-03-29T02:52:35.024Z,1010.87
2023-03-29T02:53:35.020Z,1010.78
2023-03-29T02:54:35.212Z,1010.85
2023-03-29T02:55:35.066Z,1010.83
2023-03-29T02:56:35.089Z,1010.84
2023-03-29T02:57:35.118Z,1010.84
2023-03-29T02:58:35.145Z,1010.83
2023-03-29T02:59:35.171Z,1010.84
2023-03-29T03:00:35.218Z,1010.90
2023-03-29T03:01:35.288Z,1010.87
2023-03-29T03:02:35.273Z,1010.87
2023-03-29T03:03:35.351Z,1010.90
2023-03-29T03:04:35.285Z,1010.91
2023-03-29T03:05:35.306Z,1010.85
2023-03-29T03:06:35.329Z,1010.90
2023-03-29T03:07:35.359Z,1010.86
2023-03-29T03:08:35.413Z,1010.90
2023-03-29T03:09:35.413Z,1010.90
2023-03-29T03:10:35.477Z,1010.81
2023-03-29T03:11:35.450Z,1010.82
2023-03-29T03:12:35.472Z,1010.85
2023-03-29T03:13:35.507Z,1010.80
2023-03-29T03:14:35.532Z,1010.79
2023-03-29T03:15:35.600Z,1010.77
2023-03-29T03:16:35.649Z,1010.77
2023-03-29T03:17:35.619Z,1010.78
2023-03-29T03:18:35.628Z,1010.81
2023-03-29T03:19:35.647Z,1010.81
2023-03-29T03:20:35.666Z,1010.79
2023-03-29T03:21:35.704Z,1010.80
2023-03-29T03:22:35.709Z,1010.81
2023-03-29T03:23:35.734Z,1010.90
2023-03-29T03:24:35.778Z,1010.87
2023-03-29T03:25:35.784Z,1010.79
2023-03-29T03:26:35.806Z,1010.76
2023-03-29T03:27:35.828Z,1010.80
2023-03-29T03:28:35.866Z,1010.75
2023-03-29T03:29:35.878Z,1010.76
2023-03-29T03:30:35.901Z,1010.80
2023-03-29T03:31:36.185Z,1010.80
2023-03-29T03:32:36.008Z,1010.85
2023-03-29T03:33:35.971Z,1010.80
2023-03-29T03:34:35.996Z,1010.86
2023-03-29T03:35:36.050Z,1010.80
2023-03-29T03:36:36.059Z,1010.81
2023-03-29T03:37:36.065Z,1010.87
2023-03-29T03:38:36.129Z,1010.86
2023-03-29T03:39:36.113Z,1010.84
2023-03-29T03:40:36.157Z,1010.83
2023-03-29T03:41:36.190Z,1010.76
2023-03-29T03:42:36.192Z,1010.77
2023-03-29T03:43:36.227Z,1010.77
2023-03-29T03:44:36.234Z,1010.78
2023-03-29T03:45:36.296Z,1010.75
2023-03-29T03:46:36.281Z,1010.73
2023-03-29T03:47:36.325Z,1010.66
2023-03-29T03:48:36.328Z,1010.72
2023-03-29T03:49:36.355Z,1010.71
2023-03-29T03:50:36.380Z,1010.70
2023-03-29T03:51:36.401Z,1010.67
2023-03-29T03:52:36.427Z,1010.68
2023-03-29T03:53:36.455Z,1010.72
2023-03-29T03:54:36.479Z,1010.68
2023-03-29T03:55:36.505Z,1010.70
2023-03-29T03:56:36.545Z,1010.66
2023-03-29T03:57:36.547Z,1010.65
2023-03-29T03:58:36.577Z,1010.62
2023-03-29T03:59:36.601Z,1010.63
2023-03-29T04:00:36.615Z,1010.68
2023-03-29T04:01:36.643Z,1010.64
2023-03-29T04:02:36.790Z,1010.63
2023-03-29T04:03:36.780Z,1010.57
2023-03-29T04:04:36.744Z,1010.57
2023-03-29T04:05:36.742Z,1010.58
2023-03-29T04:06:36.761Z,1010.55
2023-03-29T04:07:36.789Z,1010.53
2023-03-29T04:08:36.814Z,1010.55
2023-03-29T04:09:36.839Z,1010.54
2023-03-29T04:10:36.861Z,1010.54
2023-03-29T04:11:36.887Z,1010.48
2023-03-29T04:12:36.931Z,1010.48
2023-03-29T04:13:36.932Z,1010.52
2023-03-29T04:14:36.955Z,1010.51
2023-03-29T04:15:36.987Z,1010.51
2023-03-29T04:16:37.023Z,1010.54
2023-03-29T04:17:37.116Z,1010.49
2023-03-29T04:18:37.192Z,1010.48
2023-03-29T04:19:37.082Z,1010.50
2023-03-29T04:20:37.101Z,1010.50
2023-03-29T04:21:37.144Z,1010.46
2023-03-29T04:22:37.147Z,1010.50
2023-03-29T04:23:37.173Z,1010.45
2023-03-29T04:24:37.208Z,1010.45
2023-03-29T04:25:37.221Z,1010.44
2023-03-29T04:26:37.243Z,1010.42
2023-03-29T04:27:37.272Z,1010.41
2023-03-29T04:28:37.317Z,1010.39
2023-03-29T04:29:37.322Z,1010.46
2023-03-29T04:30:37.344Z,1010.49
2023-03-29T04:31:37.433Z,1010.47
2023-03-29T04:32:37.454Z,1010.53
2023-03-29T04:33:37.426Z,1010.50
2023-03-29T04:34:37.445Z,1010.53
2023-03-29T04:35:37.523Z,1010.54
2023-03-29T04:36:37.492Z,1010.53
2023-03-29T04:37:37.520Z,1010.56
2023-03-29T04:38:37.539Z,1010.57
2023-03-29T04:39:37.576Z,1010.55
2023-03-29T04:40:37.608Z,1010.49
2023-03-29T04:41:37.620Z,1010.53
2023-03-29T04:42:37.707Z,1010.52
2023-03-29T04:43:40.125Z,1010.54
2023-03-29T04:44:37.772Z,1010.52
2023-03-29T04:45:37.714Z,1010.52
2023-03-29T04:46:37.819Z,1010.51
2023-03-29T04:47:37.791Z,1010.50
2023-03-29T04:48:37.785Z,1010.51
2023-03-29T04:49:37.812Z,1010.49
2023-03-29T04:50:37.838Z,1010.41
2023-03-29T04:51:37.860Z,1010.49
2023-03-29T04:52:37.884Z,1010.43
2023-03-29T04:53:37.912Z,1010.40
2023-03-29T04:54:37.930Z,1010.45
2023-03-29T04:55:37.959Z,1010.36
2023-03-29T04:56:38.067Z,1010.37
2023-03-29T04:57:38.009Z,1010.35
2023-03-29T04:58:38.035Z,1010.32
2023-03-29T04:59:38.059Z,1010.35
2023-03-29T05:00:38.105Z,1010.28
2023-03-29T05:01:38.154Z,1010.30
2023-03-29T05:02:38.168Z,1010.31
2023-03-29T05:03:38.166Z,1010.34
2023-03-29T05:04:38.228Z,1010.34
2023-03-29T05:05:38.201Z,1010.28
2023-03-29T05:06:38.225Z,1010.29
2023-03-29T05:07:38.272Z,1010.23
2023-03-29T05:08:38.282Z,1010.25
2023-03-29T05:09:38.317Z,1010.22
2023-03-29T05:10:38.327Z,1010.22
2023-03-29T05:11:38.354Z,1010.23
2023-03-29T05:12:38.370Z,1010.22
2023-03-29T05:13:38.397Z,1010.21
2023-03-29T05:14:38.421Z,1010.23
2023-03-29T05:15:40.190Z,1010.23
2023-03-29T05:16:38.521Z,1010.25
2023-03-29T05:17:38.536Z,1010.23
2023-03-29T05:18:38.513Z,1010.24
2023-03-29T05:19:38.547Z,1010.26
2023-03-29T05:20:38.571Z,1010.21
2023-03-29T05:21:38.590Z,1010.26
2023-03-29T05:22:38.614Z,1010.27
2023-03-29T05:23:38.640Z,1010.27
2023-03-29T05:24:38.664Z,1010.22
2023-03-29T05:25:38.689Z,1010.19
2023-03-29T05:26:38.710Z,1010.20
2023-03-29T05:27:38.740Z,1010.19
2023-03-29T05:28:38.764Z,1010.17
2023-03-29T05:29:38.787Z,1010.17
2023-03-29T05:30:38.809Z,1010.21
2023-03-29T05:31:38.867Z,1010.17
2023-03-29T05:32:38.904Z,1010.18
2023-03-29T05:33:38.887Z,1010.21
2023-03-29T05:34:38.907Z,1010.21
2023-03-29T05:35:38.947Z,1010.20
2023-03-29T05:36:38.975Z,1010.18
2023-03-29T05:37:38.998Z,1010.19
2023-03-29T05:38:39.003Z,1010.12
2023-03-29T05:39:39.033Z,1010.13
2023-03-29T05:40:39.055Z,1010.12
2023-03-29T05:41:39.115Z,1010.16
2023-03-29T05:42:39.101Z,1010.10
2023-03-29T05:43:39.129Z,1010.11
2023-03-29T05:44:39.154Z,1010.05
2023-03-29T05:45:39.219Z,1010.06
2023-03-29T05:46:39.207Z,1010.03
2023-03-29T05:47:39.348Z,1010.08
2023-03-29T05:48:39.272Z,1010.03
2023-03-29T05:49:39.276Z,1010.03
2023-03-29T05:50:39.298Z,1010.03
2023-03-29T05:51:39.332Z,1010.02
2023-03-29T05:52:39.352Z,1010.04
2023-03-29T05:53:39.376Z,1010.00
2023-03-29T05:54:39.397Z,1010.02
2023-03-29T05:55:39.426Z,1010.00
2023-03-29T05:56:39.459Z,1009.97
2023-03-29T05:57:39.480Z,1009.97
2023-03-29T05:58:39.498Z,1009.91
2023-03-29T05:59:39.524Z,1010.00
2023-03-29T06:00:39.553Z,1009.95
2023-03-29T06:01:39.576Z,1009.95
2023-03-29T06:02:39.733Z,1009.97
2023-03-29T06:03:39.771Z,1009.95
2023-03-29T06:04:39.747Z,1009.99
2023-03-29T06:05:39.684Z,1009.98
2023-03-29T06:06:39.704Z,1010.00
2023-03-29T06:07:39.724Z,1009.99
2023-03-29T06:08:39.745Z,1010.00
2023-03-29T06:09:39.778Z,1009.96
2023-03-29T06:10:39.798Z,1009.94
2023-03-29T06:11:39.828Z,1009.93
2023-03-29T06:12:39.847Z,1009.92
2023-03-29T06:13:39.868Z,1009.95
2023-03-29T06:14:39.893Z,1009.93
2023-03-29T06:15:39.920Z,1009.97
2023-03-29T06:16:42.610Z,1009.93
2023-03-29T06:17:40.067Z,1009.98
2023-03-29T06:18:40.026Z,1010.01
2023-03-29T06:19:40.019Z,1010.05
2023-03-29T06:20:40.172Z,1010.01
2023-03-29T06:21:40.088Z,1010.02
2023-03-29T06:22:40.091Z,1010.05
2023-03-29T06:23:40.130Z,1010.05
2023-03-29T06:24:40.142Z,1010.12
2023-03-29T06:25:40.168Z,1010.10
2023-03-29T06:26:40.193Z,1010.13
2023-03-29T06:27:40.216Z,1010.17
2023-03-29T06:28:40.243Z,1010.15
2023-03-29T06:29:40.268Z,1010.17
2023-03-29T06:30:40.290Z,1010.16
2023-03-29T06:31:40.346Z,1010.20
2023-03-29T06:32:40.371Z,1010.14
2023-03-29T06:33:40.517Z,1010.15
2023-03-29T06:34:40.396Z,1010.10
2023-03-29T06:35:40.481Z,1010.12
2023-03-29T06:36:40.464Z,1010.09
2023-03-29T06:37:40.475Z,1010.10
2023-03-29T06:38:40.496Z,1010.11
2023-03-29T06:39:40.516Z,1010.12
2023-03-29T06:40:40.550Z,1010.10
2023-03-29T06:41:40.570Z,1010.09
2023-03-29T06:42:40.604Z,1010.17
2023-03-29T06:43:40.621Z,1010.13
2023-03-29T06:44:40.643Z,1010.18
2023-03-29T06:45:40.688Z,1010.18
2023-03-29T06:46:40.733Z,1010.19
2023-03-29T06:47:40.782Z,1010.14
2023-03-29T06:48:40.746Z,1010.16
2023-03-29T06:49:40.771Z,1010.15
2023-03-29T06:50:40.791Z,1010.18
2023-03-29T06:51:40.818Z,1010.17
2023-03-29T06:52:40.864Z,1010.17
2023-03-29T06:53:40.866Z,1010.22
2023-03-29T06:54:40.891Z,1010.27
2023-03-29T06:55:40.920Z,1010.25
2023-03-29T06:56:40.996Z,1010.32
2023-03-29T06:57:40.969Z,1010.30
2023-03-29T06:58:40.990Z,1010.30
2023-03-29T06:59:41.017Z,1010.30
2023-03-29T07:00:41.048Z,1010.28
2023-03-29T07:01:41.137Z,1010.34
2023-03-29T07:02:41.143Z,1010.35
2023-03-29T07:03:41.118Z,1010.37
2023-03-29T07:04:41.191Z,1010.36
2023-03-29T07:05:41.187Z,1010.36
2023-03-29T07:06:41.194Z,1010.35
2023-03-29T07:07:41.216Z,1010.37
2023-03-29T07:08:41.403Z,1010.37
2023-03-29T07:09:41.272Z,1010.34
2023-03-29T07:10:41.293Z,1010.28
2023-03-29T07:11:41.313Z,1010.24
2023-03-29T07:12:41.343Z,1010.26
2023-03-29T07:13:41.366Z,1010.26
2023-03-29T07:14:41.391Z,1010.27
2023-03-29T07:15:41.430Z,1010.24
2023-03-29T07:16:41.500Z,1010.24
2023-03-29T07:17:41.504Z,1010.22
2023-03-29T07:18:41.513Z,1010.25
2023-03-29T07:19:41.528Z,1010.24
2023-03-29T07:20:41.549Z,1010.19
2023-03-29T07:21:41.567Z,1010.27
2023-03-29T07:22:41.593Z,1010.28
2023-03-29T07:23:41.618Z,1010.25
2023-03-29T07:24:41.661Z,1010.24
2023-03-29T07:25:41.678Z,1010.21
2023-03-29T07:26:52.353Z,1010.15
2023-03-29T07:27:41.742Z,1010.21
2023-03-29T07:28:41.747Z,1010.20
2023-03-29T07:29:41.771Z,1010.20
2023-03-29T07:30:41.800Z,1010.25
2023-03-29T07:31:41.952Z,1010.25
2023-03-29T07:32:41.920Z,1010.26
2023-03-29T07:33:42.181Z,1010.20
2023-03-29T07:34:41.899Z,1010.23
2023-03-29T07:35:41.934Z,1010.20
2023-03-29T07:36:41.950Z,1010.24
2023-03-29T07:37:41.981Z,1010.28
2023-03-29T07:38:42.006Z,1010.26
2023-03-29T07:39:42.032Z,1010.27
2023-03-29T07:40:42.079Z,1010.28
2023-03-29T07:41:42.106Z,1010.28
2023-03-29T07:42:42.104Z,1010.36
2023-03-29T07:43:42.133Z,1010.35
2023-03-29T07:44:42.165Z,1010.34
2023-03-29T07:45:42.332Z,1010.42
2023-03-29T07:46:42.207Z,1010.29
2023-03-29T07:47:42.266Z,1010.31
2023-03-29T07:48:42.270Z,1010.34
2023-03-29T07:49:42.311Z,1010.32
2023-03-29T07:50:42.311Z,1010.29
2023-03-29T07:51:42.334Z,1010.30
2023-03-29T07:52:42.368Z,1010.38
2023-03-29T07:53:42.388Z,1010.34
2023-03-29T07:54:42.417Z,1010.38
2023-03-29T07:55:43.187Z,1010.34
2023-03-29T07:56:42.513Z,1010.33
2023-03-29T07:57:42.490Z,1010.31
2023-03-29T07:58:42.518Z,1010.33
2023-03-29T07:59:42.549Z,1010.29
2023-03-29T08:00:42.591Z,1010.29
2023-03-29T08:01:42.598Z,1010.30
2023-03-29T08:02:42.663Z,1010.34
2023-03-29T08:03:42.691Z,1010.32
2023-03-29T08:04:42.688Z,1010.31
2023-03-29T08:05:42.716Z,1010.33
2023-03-29T08:06:42.928Z,1010.31
2023-03-29T08:07:42.752Z,1010.28
2023-03-29T08:08:42.787Z,1010.23
2023-03-29T08:09:42.806Z,1010.31
2023-03-29T08:10:42.849Z,1010.33
2023-03-29T08:11:42.862Z,1010.27
2023-03-29T08:12:42.910Z,1010.30
2023-03-29T08:13:42.914Z,1010.29
2023-03-29T08:14:42.941Z,1010.26
2023-03-29T08:15:42.966Z,1010.28
2023-03-29T08:16:43.046Z,1010.30
2023-03-29T08:17:43.105Z,1010.29
2023-03-29T08:18:43.058Z,1010.25
2023-03-29T08:19:50.802Z,1010.27
2023-03-29T08:20:43.100Z,1010.26
2023-03-29T08:21:43.128Z,1010.28
2023-03-29T08:22:43.165Z,1010.26
2023-03-29T08:23:43.178Z,1010.28
2023-03-29T08:24:43.208Z,1010.28
2023-03-29T08:25:43.233Z,1010.30
2023-03-29T08:26:43.262Z,1010.24
2023-03-29T08:27:43.290Z,1010.23
2023-03-29T08:28:43.365Z,1010.18
2023-03-29T08:29:43.340Z,1010.18
2023-03-29T08:30:43.395Z,1010.17
2023-03-29T08:31:43.395Z,1010.16
2023-03-29T08:32:43.483Z,1010.21
2023-03-29T08:33:43.478Z,1010.19
2023-03-29T08:34:43.475Z,1010.22
2023-03-29T08:35:43.560Z,1010.26
2023-03-29T08:36:43.531Z,1010.23
2023-03-29T08:37:43.593Z,1010.24
2023-03-29T08:38:43.587Z,1010.25
2023-03-29T08:39:43.608Z,1010.24
2023-03-29T08:40:43.642Z,1010.21
2023-03-29T08:41:43.668Z,1010.22
2023-03-29T08:42:43.698Z,1010.20
2023-03-29T08:43:43.726Z,1010.19
2023-03-29T08:44:43.784Z,1010.19
2023-03-29T08:45:43.779Z,1010.20
2023-03-29T08:46:43.885Z,1010.24
2023-03-29T08:47:43.843Z,1010.19
2023-03-29T08:48:43.863Z,1010.19
2023-03-29T08:49:43.887Z,1010.20
2023-03-29T08:50:43.944Z,1010.14
2023-03-29T08:51:43.942Z,1010.19
2023-03-29T08:52:43.971Z,1010.18
2023-03-29T08:53:43.994Z,1010.22
2023-03-29T08:54:44.023Z,1010.21
2023-03-29T08:55:44.049Z,1010.27
2023-03-29T08:56:44.102Z,1010.23
2023-03-29T08:57:44.104Z,1010.21
2023-03-29T08:58:44.137Z,1010.19
2023-03-29T08:59:44.158Z,1010.20
2023-03-29T09:00:44.207Z,1010.20
2023-03-29T09:01:45.267Z,1010.17
2023-03-29T09:02:44.326Z,1010.15
2023-03-29T09:03:44.377Z,1010.13
2023-03-29T09:04:44.301Z,1010.15
2023-03-29T09:05:44.322Z,1010.16
2023-03-29T09:06:44.358Z,1010.15
2023-03-29T09:07:44.392Z,1010.17
2023-03-29T09:08:44.408Z,1010.16
2023-03-29T09:09:44.433Z,1010.17
2023-03-29T09:10:44.458Z,1010.20
2023-03-29T09:11:44.485Z,1010.17
2023-03-29T09:12:44.569Z,1010.21
2023-03-29T09:13:44.539Z,1010.25
2023-03-29T09:14:44.568Z,1010.17
2023-03-29T09:15:44.627Z,1010.21
2023-03-29T09:16:44.638Z,1010.22
2023-03-29T09:17:44.693Z,1010.16
2023-03-29T09:18:44.674Z,1010.15
2023-03-29T09:19:44.706Z,1010.14
2023-03-29T09:20:44.728Z,1010.15
2023-03-29T09:21:44.754Z,1010.18
2023-03-29T09:22:44.783Z,1010.17
2023-03-29T09:23:44.818Z,1010.20
2023-03-29T09:24:44.835Z,1010.23
2023-03-29T09:25:53.341Z,1010.26
2023-03-29T09:26:44.891Z,1010.21
2023-03-29T09:27:44.917Z,1010.24
2023-03-29T09:28:44.942Z,1010.24
2023-03-29T09:29:44.968Z,1010.28
2023-03-29T09:30:45.017Z,1010.23
2023-03-29T09:31:45.069Z,1010.21
2023-03-29T09:32:45.127Z,1010.23
2023-03-29T09:33:45.079Z,1010.17
2023-03-29T09:34:45.107Z,1010.14
2023-03-29T09:35:45.169Z,1010.14
2023-03-29T09:36:45.159Z,1010.15
2023-03-29T09:37:45.187Z,1010.14
2023-03-29T09:38:45.220Z,1010.16
2023-03-29T09:39:45.240Z,1010.13
2023-03-29T09:40:45.271Z,1010.07
2023-03-29T09:41:45.303Z,1010.07
2023-03-29T09:42:45.324Z,1010.07
2023-03-29T09:43:45.350Z,1010.09
2023-03-29T09:44:45.385Z,1010.07
2023-03-29T09:45:45.432Z,1010.07
2023-03-29T09:46:48.053Z,1010.05
2023-03-29T09:47:45.539Z,1010.04
2023-03-29T09:48:48.528Z,1010.02
2023-03-29T09:49:48.743Z,1010.04
2023-03-29T09:50:45.534Z,1010.02
2023-03-29T09:51:45.558Z,1010.09
2023-03-29T09:52:45.589Z,1010.07
2023-03-29T09:53:45.621Z,1010.06
2023-03-29T09:54:45.646Z,1010.05
2023-03-29T09:55:49.810Z,1010.01
2023-03-29T09:56:45.899Z,1010.00
2023-03-29T09:58:28.274Z,1010.02
2023-03-29T09:59:29.712Z,1010.01
2023-03-29T10:00:28.325Z,1010.03
2023-03-29T10:01:28.389Z,1010.01
2023-03-29T10:02:28.393Z,1009.98
2023-03-29T10:03:28.410Z,1009.92
2023-03-29T10:04:28.478Z,1009.91
2023-03-29T10:05:28.603Z,1009.89
2023-03-29T10:06:28.482Z,1009.87
2023-03-29T10:07:28.510Z,1009.90
2023-03-29T10:08:28.539Z,1009.93
2023-03-29T10:09:28.565Z,1009.93
2023-03-29T10:10:28.610Z,1009.93
2023-03-29T10:11:28.618Z,1009.92
2023-03-29T10:12:28.646Z,1009.94
2023-03-29T10:13:28.676Z,1009.88
2023-03-29T10:14:28.703Z,1009.89
2023-03-29T10:15:30.132Z,1009.78
2023-03-29T10:16:28.850Z,1009.83
2023-03-29T10:17:28.804Z,1009.81
2023-03-29T10:18:28.810Z,1009.83
2023-03-29T10:19:28.832Z,1009.82
2023-03-29T10:20:28.902Z,1009.82
2023-03-29T10:21:28.887Z,1009.84
2023-03-29T10:22:28.923Z,1009.82
2023-03-29T10:23:28.942Z,1009.87
2023-03-29T10:24:28.977Z,1009.83
2023-03-29T10:25:29.006Z,1009.82
2023-03-29T10:26:29.035Z,1009.80
2023-03-29T10:27:29.054Z,1009.82
2023-03-29T10:28:29.093Z,1009.81
2023-03-29T10:29:29.108Z,1009.86
2023-03-29T10:30:29.139Z,1009.86
2023-03-29T10:31:29.203Z,1009.86
2023-03-29T10:32:29.211Z,1009.81
2023-03-29T10:33:29.218Z,1009.79
2023-03-29T10:34:29.249Z,1009.78
2023-03-29T10:35:29.272Z,1009.83
2023-03-29T10:36:29.321Z,1009.83
2023-03-29T10:37:29.333Z,1009.89
2023-03-29T10:38:29.363Z,1009.87
2023-03-29T10:39:29.386Z,1009.82
2023-03-29T10:40:29.413Z,1009.80
2023-03-29T10:41:29.438Z,1009.83
2023-03-29T10:42:29.472Z,1009.81
2023-03-29T10:43:29.585Z,1009.79
2023-03-29T10:44:32.329Z,1009.74
2023-03-29T10:45:29.551Z,1009.74
2023-03-29T10:46:29.650Z,1009.70
2023-03-29T10:47:29.813Z,1009.74
2023-03-29T10:48:29.654Z,1009.78
2023-03-29T10:49:29.663Z,1009.75
2023-03-29T10:50:29.698Z,1009.74
2023-03-29T10:51:29.720Z,1009.71
2023-03-29T10:52:29.802Z,1009.71
2023-03-29T10:53:29.777Z,1009.71
2023-03-29T10:54:29.807Z,1009.69
2023-03-29T10:55:29.839Z,1009.76
2023-03-29T10:56:29.878Z,1009.71
2023-03-29T10:57:29.910Z,1009.74
2023-03-29T10:58:29.921Z,1009.66
2023-03-29T10:59:29.989Z,1009.71
2023-03-29T11:00:29.983Z,1009.69
2023-03-29T11:01:30.033Z,1009.72
2023-03-29T11:02:30.181Z,1009.67
2023-03-29T11:03:30.183Z,1009.59
2023-03-29T11:04:30.094Z,1009.59
2023-03-29T11:05:30.122Z,1009.58
2023-03-29T11:06:30.151Z,1009.63
2023-03-29T11:07:30.179Z,1009.60
2023-03-29T11:08:31.845Z,1009.56
2023-03-29T11:09:30.240Z,1009.49
2023-03-29T11:10:30.279Z,1009.54
2023-03-29T11:11:30.297Z,1009.51
2023-03-29T11:12:30.327Z,1009.43
2023-03-29T11:13:30.352Z,1009.40
2023-03-29T11:14:30.393Z,1009.41
2023-03-29T11:15:30.474Z,1009.39
2023-03-29T11:16:30.601Z,1009.37
2023-03-29T11:17:30.531Z,1009.42
2023-03-29T11:18:30.521Z,1009.46
2023-03-29T11:19:30.532Z,1009.46
2023-03-29T11:20:30.566Z,1009.49
2023-03-29T11:21:30.593Z,1009.50
2023-03-29T11:22:30.627Z,1009.52
2023-03-29T11:23:30.655Z,1009.55
2023-03-29T11:24:30.710Z,1009.52
2023-03-29T11:25:30.726Z,1009.53
2023-03-29T11:26:30.741Z,1009.50
2023-03-29T11:27:30.766Z,1009.49
2023-03-29T11:28:30.797Z,1009.41
2023-03-29T11:29:30.830Z,1009.43
2023-03-29T11:30:30.858Z,1009.40
2023-03-29T11:31:30.955Z,1009.38
2023-03-29T11:32:30.957Z,1009.38
2023-03-29T11:33:30.944Z,1009.35
2023-03-29T11:34:30.977Z,1009.36
2023-03-29T11:35:31.028Z,1009.30
2023-03-29T11:36:31.036Z,1009.29
2023-03-29T11:37:31.067Z,1009.33
2023-03-29T11:38:31.102Z,1009.29
2023-03-29T11:39:31.122Z,1009.27
2023-03-29T11:40:31.176Z,1009.29
2023-03-29T11:41:31.186Z,1009.23
2023-03-29T11:42:31.214Z,1009.25
2023-03-29T11:43:31.240Z,1009.23
2023-03-29T11:44:31.298Z,1009.24
2023-03-29T11:45:31.300Z,1009.23
2023-03-29T11:46:31.363Z,1009.27
2023-03-29T11:47:31.374Z,1009.28
2023-03-29T11:48:31.399Z,1009.19
2023-03-29T11:49:31.420Z,1009.26
2023-03-29T11:50:31.684Z,1009.18
2023-03-29T11:51:31.478Z,1009.17
2023-03-29T11:52:31.511Z,1009.15
2023-03-29T11:53:31.563Z,1009.12
2023-03-29T11:54:31.580Z,1009.13
2023-03-29T11:55:31.602Z,1009.12
2023-03-29T11:56:31.676Z,1009.11
2023-03-29T11:57:31.683Z,1009.04
2023-03-29T11:58:31.690Z,1008.97
2023-03-29T11:59:31.731Z,1008.97
2023-03-29T12:00:31.766Z,1009.00
2023-03-29T12:01:31.778Z,1008.99
2023-03-29T12:02:31.891Z,1008.92
2023-03-29T12:03:31.975Z,1008.94
2023-03-29T12:04:31.973Z,1008.96
2023-03-29T12:05:31.894Z,1008.98
2023-03-29T12:06:31.957Z,1008.99